Time;durP1;ratioP1;P1;durP2;ratioP2;P2;SDS_P1;SDS_P2;PMS_P1;PMS_P2;Temp;Humidity;BMP_temperature;BMP_pressure;BME280_temperature;BME280_humidity;BME280_pressure;Samples;Min_cycle;Max_cycle;Signal;HPM_P1;HPM_P2
2022/09/06 00:00:12;;;;;;;8.68;7.78;;;15.00;99.90;;;;;;5053515;28;20032;-65
2022/09/06 00:02:38;;;;;;;9.32;7.47;;;15.00;99.90;;;;;;5054634;28;20103;-64
2022/09/06 00:05:05;;;;;;;8.82;7.40;;;14.90;99.90;;;;;;5054433;28;20385;-65
2022/09/06 00:07:30;;;;;;;8.63;7.78;;;14.90;99.90;;;;;;5054129;28;20032;-65
2022/09/06 00:09:56;;;;;;;8.13;7.22;;;14.90;99.90;;;;;;5053398;28;20029;-64
2022/09/06 00:12:23;;;;;;;10.35;8.23;;;14.90;99.90;;;;;;5054590;28;20029;-65
2022/09/06 00:14:49;;;;;;;8.65;7.75;;;14.90;99.90;;;;;;5054550;28;20151;-65
2022/09/06 00:17:15;;;;;;;8.70;7.72;;;14.90;99.90;;;;;;5054518;28;20029;-65
2022/09/06 00:19:41;;;;;;;10.38;8.20;;;14.90;99.90;;;;;;5053379;28;20377;-65
2022/09/06 00:22:07;;;;;;;10.45;7.90;;;14.90;99.90;;;;;;5055656;28;20111;-64
2022/09/06 00:24:32;;;;;;;8.30;7.30;;;14.90;99.90;;;;;;5056217;28;20483;-65
2022/09/06 00:26:58;;;;;;;8.00;7.20;;;14.80;99.90;;;;;;5054452;28;20029;-64
2022/09/06 00:29:24;;;;;;;10.85;7.57;;;14.80;99.90;;;;;;5055716;28;20033;-64
2022/09/06 00:31:50;;;;;;;11.57;7.18;;;14.80;99.90;;;;;;5053788;28;20025;-64
2022/09/06 00:34:15;;;;;;;9.98;8.18;;;14.80;99.90;;;;;;5054173;28;20029;-64
2022/09/06 00:36:41;;;;;;;9.77;7.63;;;14.80;99.90;;;;;;5052846;28;20024;-64
2022/09/06 00:39:06;;;;;;;12.13;7.80;;;14.80;99.90;;;;;;5054211;28;20104;-64
2022/09/06 00:41:32;;;;;;;11.95;7.25;;;14.70;99.90;;;;;;5052938;28;20025;-64
2022/09/06 00:43:58;;;;;;;11.48;7.82;;;14.70;99.90;;;;;;5052765;28;20032;-64
2022/09/06 00:46:27;;;;;;;10.77;7.55;;;14.70;99.90;;;;;;5054068;28;20028;-64
2022/09/06 00:49:04;;;;;;;10.35;8.32;;;14.70;99.90;;;;;;5054050;28;20037;-64
2022/09/06 00:51:31;;;;;;;8.85;7.28;;;14.70;99.90;;;;;;5054621;28;20021;-64
2022/09/06 00:54:01;;;;;;;8.02;7.10;;;14.70;99.90;;;;;;5053539;28;20488;-64
2022/09/06 00:56:27;;;;;;;10.02;7.90;;;14.70;99.90;;;;;;5053573;28;20025;-64
2022/09/06 00:58:53;;;;;;;8.48;7.65;;;14.70;99.90;;;;;;5053971;28;20032;-65
2022/09/06 01:01:19;;;;;;;9.48;7.38;;;14.70;99.90;;;;;;5053644;28;20447;-64
2022/09/06 01:03:45;;;;;;;11.65;7.85;;;14.70;99.90;;;;;;5054152;28;20132;-65
2022/09/06 01:06:16;;;;;;;10.50;7.82;;;14.70;99.90;;;;;;5052469;28;20021;-65
2022/09/06 01:08:57;;;;;;;11.40;7.63;;;14.60;99.90;;;;;;5054028;28;20035;-64
2022/09/06 01:11:52;;;;;;;8.07;7.25;;;14.70;99.90;;;;;;5053774;28;20083;-65
2022/09/06 01:14:20;;;;;;;10.82;7.75;;;14.60;99.90;;;;;;5053720;28;20041;-64
2022/09/06 01:16:49;;;;;;;7.85;6.88;;;14.60;99.90;;;;;;5054339;28;20024;-64
2022/09/06 01:19:45;;;;;;;8.32;7.47;;;14.60;99.90;;;;;;5060286;28;20379;-65
2022/09/06 01:22:25;;;;;;;8.60;7.57;;;14.50;99.90;;;;;;5060518;28;20036;-65
2022/09/06 01:25:06;;;;;;;9.23;7.20;;;14.50;99.90;;;;;;5060511;28;20048;-65
2022/09/06 01:28:12;;;;;;;9.27;7.38;;;14.50;99.90;;;;;;5060188;28;20107;-64
2022/09/06 01:30:44;;;;;;;8.65;7.72;;;14.50;99.90;;;;;;5059759;28;20091;-65
2022/09/06 01:33:23;;;;;;;10.30;8.38;;;14.40;99.90;;;;;;5059820;28;20103;-65
2022/09/06 01:36:06;;;;;;;9.15;8.20;;;14.40;99.90;;;;;;5059948;28;20032;-64
2022/09/06 01:38:32;;;;;;;10.85;8.20;;;14.40;99.90;;;;;;5059983;28;20357;-65
2022/09/06 01:40:58;;;;;;;13.43;9.23;;;14.30;99.90;;;;;;5059810;28;20062;-64
2022/09/06 01:43:31;;;;;;;11.63;9.15;;;14.30;99.90;;;;;;5060101;28;20033;-64
2022/09/06 01:46:22;;;;;;;11.77;9.00;;;14.30;99.90;;;;;;5059879;28;20496;-65
2022/09/06 01:49:10;;;;;;;12.05;8.30;;;14.30;99.90;;;;;;5058783;28;20029;-65
2022/09/06 01:52:02;;;;;;;12.20;8.77;;;14.30;99.90;;;;;;5060510;28;20033;-64
2022/09/06 01:54:51;;;;;;;9.45;7.90;;;14.30;99.90;;;;;;5058657;28;20136;-65
2022/09/06 01:57:54;;;;;;;13.05;8.45;;;14.30;99.90;;;;;;5058751;28;20472;-65
2022/09/06 02:00:21;;;;;;;10.23;7.97;;;14.20;99.90;;;;;;5059918;28;20079;-64
2022/09/06 02:03:01;;;;;;;13.13;8.98;;;14.20;99.90;;;;;;5058280;28;20089;-65
2022/09/06 02:05:53;;;;;;;9.25;8.23;;;14.20;99.90;;;;;;5058666;28;20465;-64
2022/09/06 02:08:26;;;;;;;9.85;8.70;;;14.20;99.90;;;;;;5059994;28;20096;-65
2022/09/06 02:11:03;;;;;;;8.63;7.78;;;14.10;99.90;;;;;;5059935;28;20024;-65
2022/09/06 02:13:37;;;;;;;9.60;8.70;;;14.10;99.90;;;;;;5060110;28;20457;-66
2022/09/06 02:16:06;;;;;;;12.10;8.85;;;14.10;99.90;;;;;;5059718;28;20027;-64
2022/09/06 02:18:48;;;;;;;9.30;8.27;;;14.10;99.90;;;;;;5058371;28;20061;-65
2022/09/06 02:21:17;;;;;;;9.50;8.50;;;14.00;99.90;;;;;;5059825;28;20381;-65
2022/09/06 02:23:43;;;;;;;;;;;14.00;99.90;;;;;;5059035;28;20033;-64
2022/09/06 02:26:31;;;;;;;11.07;7.95;;;14.00;99.90;;;;;;5059688;28;20261;-64
2022/09/06 02:28:57;;;;;;;11.02;8.95;;;14.00;99.90;;;;;;5057436;28;20036;-65
2022/09/06 02:31:29;;;;;;;9.80;8.80;;;14.00;99.90;;;;;;5056737;28;20029;-65
2022/09/06 02:33:55;;;;;;;13.23;8.88;;;13.90;99.90;;;;;;5055473;28;20110;-65
2022/09/06 02:36:21;;;;;;;9.80;8.63;;;13.90;99.90;;;;;;5056475;28;20031;-65
2022/09/06 02:38:47;;;;;;;10.20;8.90;;;13.90;99.90;;;;;;5056418;28;20029;-65
2022/09/06 02:41:21;;;;;;;12.73;9.70;;;13.80;99.90;;;;;;5055187;28;20033;-64
2022/09/06 02:43:47;;;;;;;10.00;8.98;;;13.80;99.90;;;;;;5056334;28;20040;-65
2022/09/06 02:46:13;;;;;;;11.50;9.43;;;13.80;99.90;;;;;;5055376;28;20029;-65
2022/09/06 02:48:38;;;;;;;12.63;9.05;;;13.80;99.90;;;;;;5056234;28;20424;-65
2022/09/06 02:51:05;;;;;;;10.68;9.18;;;13.80;99.90;;;;;;5056139;28;20029;-65
2022/09/06 02:53:31;;;;;;;10.80;8.48;;;13.80;99.90;;;;;;5054773;28;20041;-64
2022/09/06 02:55:56;;;;;;;9.75;8.40;;;13.80;99.90;;;;;;5056034;28;20027;-64
2022/09/06 02:58:23;;;;;;;12.38;9.65;;;13.80;99.90;;;;;;5056065;28;20094;-65
2022/09/06 03:00:50;;;;;;;11.90;8.85;;;13.80;99.90;;;;;;5055847;28;20056;-65
2022/09/06 03:03:15;;;;;;;10.90;9.35;;;13.70;99.90;;;;;;5054304;28;20497;-64
2022/09/06 03:05:48;;;;;;;11.48;8.75;;;13.70;99.90;;;;;;5055573;28;20028;-64
2022/09/06 03:08:15;;;;;;;11.23;9.15;;;13.70;99.90;;;;;;5055604;28;20032;-65
2022/09/06 03:10:48;;;;;;;10.65;9.18;;;13.60;99.90;;;;;;5055808;28;20025;-65
2022/09/06 03:13:13;;;;;;;9.55;8.55;;;13.60;99.90;;;;;;5055802;28;20033;-65
2022/09/06 03:15:39;;;;;;;15.90;9.15;;;13.60;99.90;;;;;;5056110;28;20552;-64
2022/09/06 03:18:04;;;;;;;13.95;9.38;;;13.60;99.90;;;;;;5055929;28;20025;-64
2022/09/06 03:20:30;;;;;;;12.43;9.02;;;13.50;99.90;;;;;;5055316;28;20535;-65
2022/09/06 03:22:56;;;;;;;11.85;9.30;;;13.60;99.90;;;;;;5055273;28;20083;-65
2022/09/06 03:25:21;;;;;;;12.00;8.95;;;13.50;99.90;;;;;;5055509;28;20036;-64
2022/09/06 03:27:47;;;;;;;13.38;9.57;;;13.50;99.90;;;;;;5054273;28;20021;-64
2022/09/06 03:30:13;;;;;;;10.43;9.13;;;13.50;99.90;;;;;;5055469;28;20029;-65
2022/09/06 03:32:38;;;;;;;11.57;9.25;;;13.40;99.90;;;;;;5055302;28;20350;-65
2022/09/06 03:35:04;;;;;;;16.02;10.18;;;13.40;99.90;;;;;;5055022;28;20098;-65
2022/09/06 03:37:30;;;;;;;9.73;8.63;;;13.40;99.90;;;;;;5054052;28;20025;-64
2022/09/06 03:39:55;;;;;;;11.50;9.82;;;13.40;99.90;;;;;;5055237;28;20056;-64
2022/09/06 03:42:21;;;;;;;10.68;9.25;;;13.40;99.90;;;;;;5054971;28;20499;-64
2022/09/06 03:44:46;;;;;;;13.35;9.60;;;13.40;99.90;;;;;;5053988;28;20025;-64
2022/09/06 03:47:12;;;;;;;11.70;9.63;;;13.40;99.90;;;;;;5055003;28;20052;-64
2022/09/06 03:49:38;;;;;;;11.98;9.35;;;13.40;99.90;;;;;;5055202;28;20438;-64
2022/09/06 03:52:04;;;;;;;13.27;9.27;;;13.40;99.90;;;;;;5053699;28;20033;-64
2022/09/06 03:54:29;;;;;;;12.10;9.88;;;13.40;99.90;;;;;;5055001;28;20047;-64
2022/09/06 03:56:56;;;;;;;12.13;10.25;;;13.30;99.90;;;;;;5054880;28;20025;-64
2022/09/06 03:59:21;;;;;;;11.10;9.80;;;13.30;99.90;;;;;;5054796;28;20021;-64
2022/09/06 04:01:47;;;;;;;12.55;9.38;;;13.30;99.90;;;;;;5054287;28;20031;-65
2022/09/06 04:04:12;;;;;;;13.82;9.32;;;13.30;99.90;;;;;;5055546;28;20100;-64
2022/09/06 04:06:38;;;;;;;11.55;9.57;;;13.30;99.90;;;;;;5054620;28;20109;-64
2022/09/06 04:09:04;;;;;;;11.20;9.48;;;13.30;99.90;;;;;;5054353;28;20087;-64
2022/09/06 04:11:29;;;;;;;15.05;10.30;;;13.20;99.90;;;;;;5054311;28;20021;-64
2022/09/06 04:13:55;;;;;;;13.32;9.98;;;13.20;99.90;;;;;;5054625;28;20063;-64
2022/09/06 04:16:20;;;;;;;15.82;9.85;;;13.20;99.90;;;;;;5054505;28;20104;-64
2022/09/06 04:18:46;;;;;;;11.60;9.48;;;13.10;99.90;;;;;;5054314;28;20025;-65
2022/09/06 04:21:12;;;;;;;10.57;9.23;;;13.10;99.90;;;;;;5054222;28;20110;-65
2022/09/06 04:23:37;;;;;;;13.77;10.32;;;13.10;99.90;;;;;;5054369;28;20086;-65
2022/09/06 04:26:03;;;;;;;11.48;9.80;;;13.10;99.90;;;;;;5054588;28;20025;-65
2022/09/06 04:28:29;;;;;;;11.10;9.60;;;13.10;99.90;;;;;;5053033;28;20021;-65
2022/09/06 04:31:00;;;;;;;13.52;10.38;;;13.10;99.90;;;;;;5052983;28;20020;-64
2022/09/06 04:33:27;;;;;;;19.55;10.40;;;13.10;99.90;;;;;;5054480;28;20034;-65
2022/09/06 04:35:55;;;;;;;12.63;9.52;;;13.10;99.90;;;;;;5054277;28;20029;-64
2022/09/06 04:38:22;;;;;;;13.60;10.30;;;13.10;99.90;;;;;;5052913;28;20460;-64
2022/09/06 04:40:47;;;;;;;12.40;10.18;;;13.10;99.90;;;;;;5054623;28;20033;-65
2022/09/06 04:43:13;;;;;;;15.75;10.57;;;13.10;99.90;;;;;;5054284;28;20029;-65
2022/09/06 04:45:39;;;;;;;11.75;10.48;;;13.10;99.90;;;;;;5054265;28;20350;-65
2022/09/06 04:48:05;;;;;;;12.73;10.90;;;13.10;99.90;;;;;;5053921;28;20472;-63
2022/09/06 04:50:31;;;;;;;11.80;9.85;;;13.10;99.90;;;;;;5053877;28;20037;-65
2022/09/06 04:52:56;;;;;;;13.45;10.70;;;13.10;99.90;;;;;;5051959;28;20033;-61
2022/09/06 04:55:22;;;;;;;16.50;10.10;;;13.20;99.90;;;;;;5053398;28;20484;-65
2022/09/06 04:57:47;;;;;;;17.60;10.70;;;13.20;99.90;;;;;;5053712;28;20033;-64
2022/09/06 05:00:13;;;;;;;13.13;9.98;;;13.20;99.90;;;;;;5053734;28;20024;-64
2022/09/06 05:02:39;;;;;;;13.27;9.93;;;13.30;99.90;;;;;;5052548;28;20107;-64
2022/09/06 05:05:05;;;;;;;12.95;9.98;;;13.30;99.90;;;;;;5053659;28;20035;-65
2022/09/06 05:07:30;;;;;;;11.82;9.55;;;13.40;99.90;;;;;;5054148;28;20090;-65
2022/09/06 05:09:56;;;;;;;14.50;9.40;;;13.40;99.90;;;;;;5053425;28;20037;-64
2022/09/06 05:12:22;;;;;;;12.48;9.70;;;13.40;99.90;;;;;;5053617;28;20032;-64
2022/09/06 05:14:48;;;;;;;14.00;10.20;;;13.40;99.90;;;;;;5053155;28;20033;-65
2022/09/06 05:17:13;;;;;;;12.75;10.98;;;13.40;99.90;;;;;;5052696;28;20025;-65
2022/09/06 05:19:39;;;;;;;12.93;10.07;;;13.50;99.90;;;;;;5053450;28;20056;-65
2022/09/06 05:22:05;;;;;;;12.30;10.35;;;13.50;99.90;;;;;;5053463;28;20025;-64
2022/09/06 05:24:31;;;;;;;12.02;9.15;;;13.60;99.90;;;;;;5053141;28;20032;-66
2022/09/06 05:26:57;;;;;;;11.13;9.13;;;13.70;99.90;;;;;;5053855;28;20025;-64
2022/09/06 05:29:23;;;;;;;15.43;10.60;;;13.80;99.90;;;;;;5052786;28;20032;-65
2022/09/06 05:31:49;;;;;;;9.43;8.52;;;14.00;99.90;;;;;;5053884;28;20024;-64
2022/09/06 05:34:15;;;;;;;9.63;7.65;;;14.20;99.90;;;;;;5052610;28;20037;-65
2022/09/06 05:36:40;;;;;;;8.65;7.10;;;14.40;99.90;;;;;;5053832;28;20445;-65
2022/09/06 05:39:06;;;;;;;9.60;6.88;;;14.60;99.90;;;;;;5053335;28;20029;-65
2022/09/06 05:41:32;;;;;;;9.15;6.93;;;14.90;99.90;;;;;;5053244;28;20048;-65
2022/09/06 05:43:58;;;;;;;7.35;6.50;;;15.10;99.90;;;;;;5052567;28;20079;-65
2022/09/06 05:46:25;;;;;;;7.60;6.35;;;15.30;99.90;;;;;;5053504;28;20033;-65
2022/09/06 05:48:56;;;;;;;10.38;6.05;;;15.50;99.90;;;;;;5053274;28;20028;-65
2022/09/06 05:51:23;;;;;;;8.15;6.47;;;15.70;99.90;;;;;;5053282;28;20033;-65
2022/09/06 05:53:49;;;;;;;12.82;6.20;;;15.80;99.90;;;;;;5053188;28;20068;-65
2022/09/06 05:56:15;;;;;;;6.82;5.97;;;16.10;99.90;;;;;;5053264;28;20033;-65
2022/09/06 05:58:41;;;;;;;7.35;5.90;;;16.40;99.90;;;;;;5053150;28;20029;-65
2022/09/06 06:01:17;;;;;;;8.15;5.65;;;16.70;99.90;;;;;;5051814;28;20025;-65
2022/09/06 06:03:52;;;;;;;8.90;6.00;;;17.00;99.90;;;;;;5051709;28;20390;-65
2022/09/06 06:06:18;;;;;;;7.32;5.43;;;17.50;99.90;;;;;;5056639;28;20017;-65
2022/09/06 06:08:44;;;;;;;5.50;5.00;;;17.70;99.90;;;;;;5056943;28;20028;-65
2022/09/06 06:11:10;;;;;;;5.88;4.88;;;18.10;99.90;;;;;;5055849;28;20457;-65
2022/09/06 06:13:38;;;;;;;7.80;5.25;;;18.40;99.90;;;;;;5055478;28;20040;-65
2022/09/06 06:16:05;;;;;;;11.35;5.22;;;18.80;99.90;;;;;;5056671;28;20365;-65
2022/09/06 06:18:31;;;;;;;6.97;5.55;;;19.20;99.90;;;;;;5056721;28;20132;-65
2022/09/06 06:21:10;;;;;;;6.85;5.10;;;19.60;99.90;;;;;;5056713;28;20100;-65
2022/09/06 06:23:36;;;;;;;9.20;5.00;;;20.00;99.90;;;;;;5056477;28;20033;-66
2022/09/06 06:26:04;;;;;;;9.90;5.10;;;20.50;99.90;;;;;;5056580;28;20029;-63
2022/09/06 06:28:31;;;;;;;6.78;4.55;;;20.90;99.90;;;;;;5056285;28;20385;-63
2022/09/06 06:30:56;;;;;;;7.13;5.25;;;21.30;99.90;;;;;;5056647;28;20025;-63
2022/09/06 06:33:22;;;;;;;5.13;4.63;;;21.60;99.90;;;;;;5056474;28;20056;-63
2022/09/06 06:36:02;;;;;;;5.40;4.32;;;21.80;99.90;;;;;;5055203;28;20025;-62
2022/09/06 06:38:36;;;;;;;6.05;4.65;;;22.20;99.90;;;;;;5055305;28;20083;-63
2022/09/06 06:41:04;;;;;;;4.82;4.43;;;22.40;99.90;;;;;;5056390;28;20053;-63
2022/09/06 06:43:35;;;;;;;6.30;4.53;;;22.70;99.90;;;;;;5056217;28;20083;-63
2022/09/06 06:46:02;;;;;;;5.80;4.18;;;22.90;99.90;;;;;;5056317;28;20027;-63
2022/09/06 06:48:28;;;;;;;4.43;4.03;;;23.20;99.90;;;;;;5056363;28;20048;-63
2022/09/06 06:50:53;;;;;;;7.32;5.20;;;23.20;99.90;;;;;;5056276;28;20465;-63
2022/09/06 06:53:19;;;;;;;5.13;4.55;;;23.20;99.90;;;;;;5054634;28;20036;-63
2022/09/06 06:55:47;;;;;;;5.85;4.30;;;23.40;99.90;;;;;;5056218;28;20025;-64
2022/09/06 06:58:14;;;;;;;7.77;5.37;;;23.40;99.90;;;;;;5055466;28;20033;-64
2022/09/06 07:00:40;;;;;;;13.15;4.97;;;23.50;99.90;;;;;;5054526;28;20029;-63
2022/09/06 07:03:07;;;;;;;7.72;5.30;;;23.30;99.90;;;;;;5055346;28;20397;-63
2022/09/06 07:05:33;;;;;;;6.25;5.65;;;23.40;99.90;;;;;;5054637;28;20455;-63
2022/09/06 07:07:59;;;;;;;7.93;5.57;;;23.50;99.90;;;;;;5055905;28;20033;-63
2022/09/06 07:10:25;;;;;;;9.30;6.10;;;23.70;99.90;;;;;;5055937;28;20109;-63
2022/09/06 07:12:50;;;;;;;11.20;6.60;;;23.80;99.90;;;;;;5056025;28;20028;-63
2022/09/06 07:15:17;;;;;;;9.00;5.40;;;24.00;99.10;;;;;;5055127;28;20033;-63
2022/09/06 07:17:42;;;;;;;9.10;6.70;;;24.00;99.20;;;;;;5055504;28;20029;-63
2022/09/06 07:20:09;;;;;;;7.03;5.47;;;24.00;99.10;;;;;;5055563;28;20025;-63
2022/09/06 07:22:35;;;;;;;7.75;5.35;;;24.10;99.20;;;;;;5055269;28;20029;-63
2022/09/06 07:25:02;;;;;;;11.27;6.40;;;24.30;98.70;;;;;;5055489;28;20480;-63
2022/09/06 07:27:28;;;;;;;5.80;5.20;;;24.40;97.90;;;;;;5055164;28;20021;-63
2022/09/06 07:29:53;;;;;;;10.23;7.00;;;24.70;98.20;;;;;;5055064;28;20033;-63
2022/09/06 07:32:19;;;;;;;8.82;5.97;;;24.70;96.70;;;;;;5055641;28;20056;-63
2022/09/06 07:34:44;;;;;;;7.75;5.60;;;24.60;97.10;;;;;;5055261;28;20115;-63
2022/09/06 07:37:10;;;;;;;7.50;5.90;;;24.80;96.60;;;;;;5055308;28;20385;-63
2022/09/06 07:39:36;;;;;;;8.35;6.03;;;24.90;96.20;;;;;;5055165;28;20111;-63
2022/09/06 07:42:02;;;;;;;10.35;6.57;;;24.90;96.00;;;;;;5055192;28;20024;-63
2022/09/06 07:44:28;;;;;;;9.05;6.20;;;24.80;95.50;;;;;;5055323;28;20029;-63
2022/09/06 07:46:54;;;;;;;5.95;5.35;;;24.80;95.80;;;;;;5054884;28;20489;-63
2022/09/06 07:49:20;;;;;;;6.15;5.53;;;25.20;95.70;;;;;;5053790;28;20029;-64
2022/09/06 07:51:47;;;;;;;10.00;5.95;;;25.60;94.70;;;;;;5055139;28;20465;-64
2022/09/06 07:54:12;;;;;;;8.82;6.20;;;26.10;93.80;;;;;;5054805;28;20029;-64
2022/09/06 07:56:38;;;;;;;6.82;5.40;;;26.10;93.10;;;;;;5054772;28;20404;-65
2022/09/06 07:59:04;;;;;;;7.45;5.70;;;26.10;92.80;;;;;;5053501;28;20357;-63
2022/09/06 08:01:31;;;;;;;9.35;5.75;;;26.30;92.00;;;;;;5053792;28;20119;-63
2022/09/06 08:03:58;;;;;;;8.60;6.55;;;26.40;91.90;;;;;;5053505;28;20122;-63
2022/09/06 08:06:25;;;;;;;8.85;6.75;;;26.10;91.20;;;;;;5054764;28;20056;-63
2022/09/06 08:08:51;;;;;;;10.13;5.90;;;25.40;92.30;;;;;;5054503;28;20384;-64
2022/09/06 08:11:18;;;;;;;11.80;6.40;;;25.70;92.60;;;;;;5054615;28;20104;-63
2022/09/06 08:13:44;;;;;;;6.70;6.10;;;26.20;92.10;;;;;;5054748;28;20053;-63
2022/09/06 08:16:11;;;;;;;11.07;7.18;;;26.50;91.40;;;;;;5054578;28;20178;-63
2022/09/06 08:18:37;;;;;;;9.73;6.43;;;26.70;90.50;;;;;;5054468;28;20029;-64
2022/09/06 08:21:06;;;;;;;7.57;6.30;;;26.70;90.00;;;;;;5054361;28;20036;-63
2022/09/06 08:23:32;;;;;;;9.75;6.63;;;26.20;90.60;;;;;;5054074;28;20385;-63
2022/09/06 08:25:58;;;;;;;7.75;6.45;;;26.40;91.00;;;;;;5054368;28;20033;-63
2022/09/06 08:28:25;;;;;;;8.15;6.10;;;26.50;90.30;;;;;;5053378;28;20032;-64
2022/09/06 08:30:51;;;;;;;6.47;5.88;;;26.70;89.40;;;;;;5054602;28;20037;-63
2022/09/06 08:33:20;;;;;;;13.20;7.43;;;26.60;89.90;;;;;;5053904;28;20113;-63
2022/09/06 08:35:56;;;;;;;7.93;5.90;;;27.00;90.00;;;;;;5053044;28;20357;-63
2022/09/06 08:38:22;;;;;;;10.88;6.15;;;27.50;86.80;;;;;;5054061;28;20029;-65
2022/09/06 08:40:48;;;;;;;10.35;5.47;;;28.00;86.00;;;;;;5054307;28;20029;-63
2022/09/06 08:43:18;;;;;;;9.20;5.72;;;28.40;84.10;;;;;;5054177;28;20083;-63
2022/09/06 08:45:53;;;;;;;13.00;6.40;;;28.80;81.40;;;;;;5054240;28;20027;-65
2022/09/06 08:48:20;;;;;;;9.85;6.38;;;28.50;80.50;;;;;;5054165;28;20068;-66
2022/09/06 08:51:08;;;;;;;7.53;6.75;;;28.30;80.20;;;;;;5053130;28;20116;-65
2022/09/06 08:53:41;;;;;;;7.80;6.45;;;28.00;81.10;;;;;;5051737;28;20043;-65
2022/09/06 08:56:45;;;;;;;8.07;7.28;;;28.40;80.00;;;;;;5054098;28;20029;-65
2022/09/06 08:59:13;;;;;;;7.95;6.72;;;28.60;79.10;;;;;;5052954;28;20094;-64
2022/09/06 09:02:01;;;;;;;8.85;6.32;;;28.80;78.60;;;;;;5053870;28;20083;-64
2022/09/06 09:04:29;;;;;;;9.13;7.65;;;29.50;76.40;;;;;;5053653;28;20118;-65
2022/09/06 09:07:04;;;;;;;6.10;5.60;;;29.40;75.10;;;;;;5052480;28;20406;-64
2022/09/06 09:09:33;;;;;;;6.97;6.07;;;29.70;75.00;;;;;;5053924;28;20098;-65
2022/09/06 09:11:59;;;;;;;8.20;5.80;;;30.00;73.70;;;;;;5052419;28;20025;-64
2022/09/06 09:14:34;;;;;;;7.07;6.35;;;30.60;72.90;;;;;;5053469;28;20036;-66
2022/09/06 09:17:10;;;;;;;7.68;5.85;;;31.10;70.20;;;;;;5053815;28;20029;-66
2022/09/06 09:19:38;;;;;;;6.47;5.88;;;30.80;69.20;;;;;;5053731;28;20021;-64
2022/09/06 09:22:03;;;;;;;7.13;6.53;;;30.20;68.00;;;;;;5053617;28;20021;-64
2022/09/06 09:24:31;;;;;;;6.70;6.10;;;30.00;69.00;;;;;;5053625;28;20384;-66
2022/09/06 09:27:10;;;;;;;6.53;5.82;;;30.50;69.00;;;;;;5052054;28;20108;-65
2022/09/06 09:30:03;;;;;;;6.65;5.72;;;30.60;67.90;;;;;;5053677;28;20048;-64
2022/09/06 09:32:43;;;;;;;10.40;6.55;;;30.60;66.60;;;;;;5050443;28;20033;-65
2022/09/06 09:35:30;;;;;;;6.25;5.65;;;30.00;68.40;;;;;;5052964;28;20037;-64
2022/09/06 09:38:09;;;;;;;12.45;6.95;;;30.00;68.40;;;;;;5054160;28;20029;-64
2022/09/06 09:40:47;;;;;;;11.77;7.32;;;29.60;68.10;;;;;;5056353;28;20453;-65
2022/09/06 09:43:18;;;;;;;11.65;7.32;;;29.00;69.10;;;;;;5056325;28;20036;-65
2022/09/06 09:45:44;;;;;;;12.32;6.38;;;28.80;69.80;;;;;;5057683;28;20044;-65
2022/09/06 09:48:25;;;;;;;7.78;6.68;;;29.40;69.30;;;;;;5056143;28;20040;-65
2022/09/06 09:50:51;;;;;;;6.40;5.80;;;29.80;68.60;;;;;;5057488;28;20032;-64
2022/09/06 09:53:21;;;;;;;8.43;5.95;;;30.50;66.90;;;;;;5055966;28;20033;-65
2022/09/06 09:55:48;;;;;;;7.03;5.80;;;30.90;65.20;;;;;;5056230;28;20061;-65
2022/09/06 09:58:35;;;;;;;6.85;6.00;;;30.70;65.40;;;;;;5056662;28;20028;-65
2022/09/06 10:01:14;;;;;;;7.85;5.55;;;30.80;64.60;;;;;;5057757;28;20032;-66
2022/09/06 10:03:39;;;;;;;10.32;6.80;;;30.80;64.50;;;;;;5057406;28;20048;-66
2022/09/06 10:06:10;;;;;;;6.80;6.15;;;30.70;63.90;;;;;;5058357;28;20108;-65
2022/09/06 10:08:41;;;;;;;6.90;6.20;;;30.90;63.90;;;;;;5058607;28;20021;-66
2022/09/06 10:11:11;;;;;;;10.13;6.10;;;31.00;63.90;;;;;;5057209;28;20060;-66
2022/09/06 10:13:37;;;;;;;8.13;6.10;;;31.40;63.00;;;;;;5057033;28;20029;-65
2022/09/06 10:16:03;;;;;;;6.00;5.40;;;31.20;62.60;;;;;;5057526;28;20037;-66
2022/09/06 10:18:34;;;;;;;10.43;5.00;;;31.50;62.30;;;;;;5056994;28;20029;-66
2022/09/06 10:21:04;;;;;;;6.93;6.00;;;32.20;61.70;;;;;;5056933;28;20029;-66
2022/09/06 10:24:07;;;;;;;10.55;5.85;;;32.80;59.50;;;;;;5055495;28;20057;-66
2022/09/06 10:26:46;;;;;;;10.25;5.47;;;32.80;59.60;;;;;;5056879;28;20075;-66
2022/09/06 10:29:13;;;;;;;9.20;5.82;;;32.90;58.40;;;;;;5057053;28;20037;-65
2022/09/06 10:31:38;;;;;;;7.85;5.72;;;32.30;58.50;;;;;;5055023;28;20036;-66
2022/09/06 10:34:32;;;;;;;5.32;4.75;;;32.40;58.50;;;;;;5056409;28;20029;-66
2022/09/06 10:37:21;;;;;;;5.72;5.13;;;32.40;58.90;;;;;;5056246;28;20166;-66
2022/09/06 10:40:01;;;;;;;6.03;5.38;;;32.40;58.50;;;;;;5056651;28;20124;-66
2022/09/06 10:42:35;;;;;;;6.68;6.07;;;33.10;58.10;;;;;;5056857;28;20028;-66
2022/09/06 10:45:13;;;;;;;5.47;4.70;;;32.90;57.30;;;;;;5056491;28;20049;-66
2022/09/06 10:48:03;;;;;;;4.80;4.43;;;33.40;56.80;;;;;;5056402;28;20113;-66
2022/09/06 10:50:56;;;;;;;6.15;5.55;;;32.90;57.00;;;;;;5055336;28;20527;-66
2022/09/06 10:53:47;;;;;;;5.25;4.75;;;33.30;56.40;;;;;;5056386;28;20029;-66
2022/09/06 10:56:51;;;;;;;6.50;4.65;;;33.10;56.10;;;;;;5056155;28;20029;-66
2022/09/06 10:59:38;;;;;;;5.53;4.97;;;33.30;56.80;;;;;;5054902;28;20174;-65
2022/09/06 11:02:29;;;;;;;7.28;4.70;;;33.40;55.30;;;;;;5054440;28;20029;-66
2022/09/06 11:05:00;;;;;;;8.25;4.38;;;33.90;55.30;;;;;;5055944;28;20036;-65
2022/09/06 11:07:40;;;;;;;7.47;4.45;;;34.60;54.60;;;;;;5055666;28;20079;-66
2022/09/06 11:10:11;;;;;;;4.90;3.95;;;35.00;53.60;;;;;;5055878;28;20053;-65
2022/09/06 11:13:00;;;;;;;7.22;4.15;;;35.30;52.80;;;;;;5054528;28;20017;-65
2022/09/06 11:15:35;;;;;;;6.07;4.32;;;34.60;52.80;;;;;;5056024;28;20040;-65
2022/09/06 11:18:14;;;;;;;5.15;4.40;;;33.90;54.00;;;;;;5054410;28;20112;-66
2022/09/06 11:20:42;;;;;;;5.82;4.40;;;33.10;55.60;;;;;;5055646;28;20027;-65
2022/09/06 11:23:33;;;;;;;10.95;4.05;;;33.20;55.80;;;;;;5055703;28;20071;-66
2022/09/06 11:26:10;;;;;;;4.03;3.72;;;34.00;53.80;;;;;;5055965;28;20191;-66
2022/09/06 11:28:38;;;;;;;4.70;4.30;;;33.90;52.80;;;;;;5055614;28;20032;-63
2022/09/06 11:31:07;;;;;;;4.57;3.78;;;33.70;53.20;;;;;;5054765;28;20102;-64
2022/09/06 11:33:38;;;;;;;4.45;3.97;;;33.80;52.80;;;;;;5055256;28;20057;-65
2022/09/06 11:36:50;;;;;;;5.90;4.50;;;32.60;54.10;;;;;;5055447;28;20025;-64
2022/09/06 11:39:29;;;;;;;4.00;3.63;;;31.40;56.00;;;;;;5016348;28;20545;-65
2022/09/06 11:41:55;;;;;;;5.90;3.58;;;31.90;57.40;;;;;;5052293;28;20040;-64
2022/09/06 11:44:56;;;;;;;6.25;3.83;;;33.30;55.00;;;;;;5055562;28;20362;-63
2022/09/06 11:47:39;;;;;;;5.63;3.55;;;34.20;52.90;;;;;;5043329;28;20037;-65
2022/09/06 11:50:21;;;;;;;3.67;3.38;;;34.70;50.60;;;;;;5053944;28;20025;-66
2022/09/06 11:53:04;;;;;;;5.43;3.58;;;34.70;50.80;;;;;;5055776;28;20061;-64
2022/09/06 11:55:44;;;;;;;3.08;2.78;;;34.00;51.70;;;;;;5054228;28;20029;-63
2022/09/06 11:58:19;;;;;;;3.47;3.17;;;34.60;50.80;;;;;;5055449;28;20460;-59
2022/09/06 12:01:05;;;;;;;3.45;3.13;;;34.90;50.80;;;;;;5054488;28;20546;-61
2022/09/06 12:03:46;;;;;;;3.63;3.28;;;34.10;51.40;;;;;;5055023;28;20139;-59
2022/09/06 12:06:26;;;;;;;3.30;3.05;;;33.30;52.60;;;;;;5054799;28;20036;-59
2022/09/06 12:08:53;;;;;;;2.65;2.55;;;33.40;53.20;;;;;;5054873;28;20021;-59
2022/09/06 12:11:36;;;;;;;6.40;3.00;;;34.30;52.50;;;;;;5054962;28;20066;-59
2022/09/06 12:14:32;;;;;;;3.22;3.03;;;34.20;51.60;;;;;;5054140;28;20480;-60
2022/09/06 12:16:57;;;;;;;3.17;2.95;;;34.90;51.50;;;;;;5054318;28;20173;-59
2022/09/06 12:19:52;;;;;;;3.83;3.05;;;34.40;51.30;;;;;;5054677;28;20057;-59
2022/09/06 12:22:29;;;;;;;6.38;2.97;;;34.20;51.20;;;;;;5054547;28;20029;-60
2022/09/06 12:24:55;;;;;;;3.38;3.17;;;33.80;51.90;;;;;;5054464;28;20029;-60
2022/09/06 12:27:25;;;;;;;6.57;3.28;;;33.30;52.80;;;;;;5054297;28;20037;-60
2022/09/06 12:30:00;;;;;;;3.67;3.35;;;33.00;54.10;;;;;;5054407;28;20025;-60
2022/09/06 12:32:40;;;;;;;5.45;3.33;;;33.30;53.60;;;;;;5054175;28;20052;-60
2022/09/06 12:35:13;;;;;;;7.53;4.65;;;33.10;53.90;;;;;;5054340;28;20419;-60
2022/09/06 12:37:57;;;;;;;4.90;4.50;;;32.60;55.00;;;;;;5054214;28;20029;-60
2022/09/06 12:40:25;;;;;;;5.63;4.85;;;32.00;56.10;;;;;;5053772;28;20079;-60
2022/09/06 12:42:52;;;;;;;5.68;5.28;;;31.30;57.20;;;;;;5054327;28;20397;-59
2022/09/06 12:45:20;;;;;;;9.55;5.18;;;31.10;58.00;;;;;;5054114;28;20085;-60
2022/09/06 12:47:46;;;;;;;6.40;5.07;;;30.80;58.70;;;;;;5054044;28;20082;-60
2022/09/06 12:50:17;;;;;;;7.05;5.10;;;30.50;58.90;;;;;;5054233;28;20041;-59
2022/09/06 12:52:58;;;;;;;6.55;5.00;;;29.90;60.40;;;;;;5054799;28;20025;-60
2022/09/06 12:55:33;;;;;;;5.78;5.18;;;29.30;61.60;;;;;;5054042;28;20040;-60
2022/09/06 12:58:06;;;;;;;6.95;4.90;;;28.90;62.80;;;;;;5053865;28;20399;-61
2022/09/06 13:00:42;;;;;;;5.43;4.93;;;28.50;64.10;;;;;;5052786;28;20075;-60
2022/09/06 13:03:25;;;;;;;7.25;5.53;;;28.10;65.10;;;;;;5053506;28;20493;-63